Walnut Ridge, AR

1:06 AM CDT on October 21, 2014 (GMT -0500)
Walnut Ridge Regional | Change Station
CLOSE
Current Station
Airport
Location: Walnut Ridge,
Elevation: 272 ft
Nearby Weather Stations

Elev 272 ft 36.12 °N, 90.93 °W | Updated 11 minutes ago

Clear
Clear
55 °F
Feels Like 55 °F
N
0
Wind Variable Wind from North

Today
High -- | Low -- °F
--% Chance of Precip.
Yesterday
High -- | Low -- °F
Precip. -- in
7:16 AM 6:20 PM
Waning Crescent, 7% visible
Pressure 30.03 in
Visibility 8.0 miles
Clouds Clear
Dew Point 52 °F
Humidity 88%
Rainfall 0.00 in
Snow Depth Not available.
UV 0 out of 12
Pollen 1.90 out of 12
Air Quality Not available.
Flu Activity Sporadic
METAR KARG 210555Z AUTO 00000KT 8SM CLR 13/11 A3003 RMK AO1 10190 20130 52007

More Conditions Fewer Conditions

Pressure 30.03 in
Visibility 8.0 miles
Clouds Clear
Dew Point 52 °F
Humidity 88%
Rainfall 0.00 in
Snow Depth Not available.
UV 0 out of 12
Pollen 1.90 out of 12
Air Quality Not available.
Flu Activity Sporadic
METAR KARG 210555Z AUTO 00000KT 8SM CLR 13/11 A3003 RMK AO1 10190 20130 52007

More Conditions Fewer Conditions

10-Day Weather Forecast

Almanac

Astronomy

Oct. 21, 2014 Rise Set
Actual Time 7:16 AM CDT 6:20 PM CDT
Civil Twilight 6:50 AM CDT 6:46 PM CDT
Nautical Twilight 6:20 AM CDT 7:16 PM CDT
Astronomical Twilight 5:50 AM CDT 7:45 PM CDT
Moon 5:04 AM CDT 5:11 PM CDT
Length of Visible Light 11h 56m
Length of Day
11h 04m
Tomorrow will be 2m 8s shorter.
Waning Crescent, 7% of the Moon is Illuminated
Today
Waning Crescent
Oct 23
New
Oct 30
First Quarter
Nov 6
Full
Nov 14
Last Quarter

Today's Extremes

State Highs State Lows

Community

WunderPhotos

Upload Photos

1,763,614 photos uploaded!

Nearby

Snow Depth

Station Depth Elevation
No new snow has been reported.

Earthquake Activity

City Distance Mag. Time & Date
No recent earthquake activity has been reported nearby.
Minimum magnitude displayed is 2.5.

Coastal Water Temperatures

Place Temperature
No Stations Reporting

Nearby Weather Stations